CheckWX is a tool to help pilots better visualize weather data.  It is not intended as a substitute for an official pre-flight weather briefing.

21:15:30 UTC

EGOS METAR
RAF Shawbury Airport
Shawbury, United Kingdom
Current

26 mins ago

EGOS 232050Z AUTO 22003KT 6000 HZ FEW080/// BKN160/// 11/09 Q1032
Observed
Feb-23 @ 20:50 UTC
Wind
  • 220° at 3 KTS
Visibility
6,003 meters
Flight Rules
MVFR
Conditions
Haze
Cloud Levels
  • Few at 8,000' AGL
  • Broken at 16,000' AGL
Temperature
11°C / 52°F
Dewpoint
C / 48°F
Humidity
88%
Altimeter
30.47" Hg
Pressure
1031.91 hPa
Previous

1 hour ago

EGOS 231950Z AUTO 18003KT 7000 HZ FEW080/// BKN190/// 11/08 Q1032
Observed
Feb-23 @ 19:50 UTC
Wind
  • 180° at 3 KTS
Visibility
7,001 meters
Flight Rules
MVFR
Conditions
Haze
Cloud Levels
  • Few at 8,000' AGL
  • Broken at 19,000' AGL
Temperature
11°C / 52°F
Dewpoint
C / 46°F
Humidity
82%
Altimeter
30.47" Hg
Pressure
1031.91 hPa
Previous

2 hours ago

EGOS 231850Z AUTO 18006KT 7000 HZ BKN060/// BKN170/// 13/08 Q1032
Observed
Feb-23 @ 18:50 UTC
Wind
  • 180° at 6 KTS
Visibility
7,001 meters
Flight Rules
MVFR
Conditions
Haze
Cloud Levels
  • Broken at 6,000' AGL
  • Broken at 17,000' AGL
Temperature
13°C / 55°F
Dewpoint
C / 46°F
Humidity
72%
Altimeter
30.47" Hg
Pressure
1031.91 hPa